Time;durP1;ratioP1;P1;durP2;ratioP2;P2;SDS_P1;SDS_P2;PMS_P1;PMS_P2;Temp;Humidity;BMP_temperature;BMP_pressure;BME280_temperature;BME280_humidity;BME280_pressure;Samples;Min_cycle;Max_cycle;Signal;HPM_P1;HPM_P2
2023/10/16 00:05:45;;;;;;;0.70;0.70;;;16.40;83.30;;;;;;10860900;32;20385;-72
2023/10/16 00:11:47;;;;;;;2.58;0.85;;;16.30;83.90;;;;;;10858341;32;20016;-72
2023/10/16 00:17:49;;;;;;;0.60;0.60;;;16.40;84.10;;;;;;10859940;32;20058;-71
2023/10/16 00:23:54;;;;;;;0.52;0.52;;;16.40;83.70;;;;;;10860478;32;20042;-69
2023/10/16 00:29:56;;;;;;;0.57;0.55;;;16.40;83.40;;;;;;10867853;32;20038;-70
2023/10/16 00:36:00;;;;;;;0.57;0.57;;;16.30;83.70;;;;;;10865784;32;20046;-69
2023/10/16 00:42:02;;;;;;;0.55;0.55;;;16.20;84.30;;;;;;10866955;32;20047;-69
2023/10/16 00:48:06;;;;;;;0.60;0.60;;;16.30;83.90;;;;;;10865401;32;20027;-69
2023/10/16 00:54:17;;;;;;;0.50;0.50;;;16.30;83.60;;;;;;10865292;32;20020;-69
2023/10/16 01:00:19;;;;;;;0.80;0.80;;;16.20;83.30;;;;;;10851827;32;20440;-69
2023/10/16 01:06:26;;;;;;;0.80;0.80;;;16.20;83.30;;;;;;10865066;32;20042;-69
2023/10/16 01:12:28;;;;;;;0.68;0.68;;;16.20;83.50;;;;;;10853462;32;20019;-71
2023/10/16 01:18:31;;;;;;;0.62;0.62;;;16.00;83.50;;;;;;10864725;32;20027;-70
2023/10/16 01:24:33;;;;;;;1.02;0.77;;;16.00;83.80;;;;;;10851920;32;20050;-69
2023/10/16 01:30:40;;;;;;;0.70;0.70;;;16.00;84.10;;;;;;10865043;32;20309;-69
2023/10/16 01:36:45;;;;;;;0.50;0.50;;;16.00;84.00;;;;;;10863714;32;20058;-69
2023/10/16 01:42:54;;;;;;;0.62;0.57;;;16.00;84.00;;;;;;10865095;32;20063;-69
2023/10/16 01:49:00;;;;;;;0.68;0.65;;;16.00;84.30;;;;;;10863578;32;20043;-69
2023/10/16 01:55:09;;;;;;;0.80;0.80;;;15.90;84.40;;;;;;10863607;32;20020;-69
2023/10/16 02:01:12;;;;;;;0.57;0.57;;;15.90;84.00;;;;;;10863457;32;20020;-69
2023/10/16 02:07:14;;;;;;;0.70;0.70;;;15.90;83.30;;;;;;10849624;32;20050;-69
2023/10/16 02:13:16;;;;;;;0.75;0.60;;;15.80;83.10;;;;;;10861416;32;20045;-69
2023/10/16 02:19:19;;;;;;;1.20;0.62;;;15.70;83.10;;;;;;10863544;32;20042;-69
2023/10/16 02:25:23;;;;;;;0.82;0.55;;;15.70;82.80;;;;;;10862782;32;20046;-69
2023/10/16 02:31:25;;;;;;;2.25;0.70;;;15.80;82.50;;;;;;10862577;32;20039;-69
2023/10/16 02:37:27;;;;;;;1.87;0.85;;;15.70;82.90;;;;;;10862389;32;20024;-69
2023/10/16 02:43:30;;;;;;;0.80;0.80;;;15.70;83.10;;;;;;10863034;32;20393;-69
2023/10/16 02:49:34;;;;;;;0.80;0.80;;;15.60;83.00;;;;;;10861442;32;20062;-69
2023/10/16 02:55:40;;;;;;;0.73;0.73;;;15.60;82.90;;;;;;10861956;32;20019;-69
2023/10/16 03:01:42;;;;;;;1.50;0.98;;;15.50;82.80;;;;;;10861758;32;20019;-69
2023/10/16 03:07:44;;;;;;;1.00;0.90;;;15.50;82.80;;;;;;10862897;32;20020;-69
2023/10/16 03:13:51;;;;;;;1.60;0.98;;;15.50;82.90;;;;;;10861604;32;20023;-69
2023/10/16 03:19:55;;;;;;;1.00;1.00;;;15.60;82.90;;;;;;10862632;32;20039;-69
2023/10/16 03:25:59;;;;;;;0.88;0.88;;;15.60;83.30;;;;;;10861331;32;20012;-69
2023/10/16 03:32:02;;;;;;;0.77;0.77;;;15.60;83.20;;;;;;10846522;32;20038;-69
2023/10/16 03:38:24;;;;;;;0.70;0.70;;;15.50;83.20;;;;;;10862178;32;20051;-69
2023/10/16 03:44:26;;;;;;;0.75;0.75;;;15.50;83.60;;;;;;10861364;32;20389;-69
2023/10/16 03:50:34;;;;;;;1.87;0.90;;;15.60;83.90;;;;;;10860851;32;20432;-69
2023/10/16 03:56:36;;;;;;;1.57;0.90;;;15.50;84.00;;;;;;10860412;32;20012;-70
2023/10/16 04:02:40;;;;;;;0.75;0.75;;;15.50;84.00;;;;;;10866088;32;20112;-69
2023/10/16 04:08:43;;;;;;;0.60;0.60;;;15.40;84.10;;;;;;10866732;32;20028;-69
2023/10/16 04:14:50;;;;;;;0.88;0.88;;;15.40;84.20;;;;;;10866357;32;20046;-69
2023/10/16 04:33:48;;;;;;;0.90;0.90;;;15.30;83.70;;;;;;10865870;32;20082;-68
2023/10/16 04:46:20;;;;;;;0.95;0.80;;;15.30;83.90;;;;;;10866167;32;20028;-69
2023/10/16 04:52:51;;;;;;;0.60;0.60;;;15.20;83.90;;;;;;10843452;32;20051;-69
2023/10/16 04:58:59;;;;;;;0.68;0.68;;;15.20;84.00;;;;;;10815609;32;20043;-70
2023/10/16 06:14:38;;;;;;;0.90;0.90;;;15.00;84.60;;;;;;10825641;33;20028;-72
2023/10/16 06:20:43;;;;;;;1.85;1.10;;;14.90;84.80;;;;;;10826729;32;20042;-71
2023/10/16 06:26:46;;;;;;;3.72;1.17;;;14.90;84.90;;;;;;10826178;33;20028;-71
2023/10/16 06:33:07;;;;;;;0.70;0.70;;;15.00;85.10;;;;;;10825701;33;20341;-71
2023/10/16 06:39:22;;;;;;;1.75;1.12;;;15.00;85.30;;;;;;10825266;33;20028;-74
2023/10/16 06:45:40;;;;;;;1.17;1.08;;;15.00;85.20;;;;;;10825723;33;20427;-73
2023/10/16 06:51:35;;;;;;;1.42;1.10;;;15.00;85.20;;;;;;10755455;32;7148951;-69
2023/10/16 06:57:38;;;;;;;1.05;0.95;;;14.90;84.90;;;;;;10965462;32;20060;-69
2023/10/16 07:03:40;;;;;;;1.77;1.10;;;14.80;85.40;;;;;;10979335;32;20022;-69
2023/10/16 07:09:52;;;;;;;1.70;1.17;;;14.90;85.50;;;;;;10979757;32;20011;-69
2023/10/16 07:16:02;;;;;;;2.10;1.05;;;15.00;85.50;;;;;;10978582;32;20455;-70
2023/10/16 07:22:26;;;;;;;1.35;1.25;;;15.10;85.60;;;;;;10979009;32;20077;-69
2023/10/16 07:28:31;;;;;;;3.97;1.20;;;15.20;85.00;;;;;;10979312;32;20022;-69
2023/10/16 07:34:34;;;;;;;2.42;1.40;;;15.30;84.80;;;;;;10983086;32;20019;-69
2023/10/16 07:40:39;;;;;;;1.30;1.15;;;15.40;84.90;;;;;;10986535;32;20041;-69
2023/10/16 07:46:44;;;;;;;1.52;1.17;;;15.50;85.00;;;;;;10950519;32;20057;-69
2023/10/16 07:52:46;;;;;;;0.80;0.80;;;15.40;84.10;;;;;;10948377;32;20035;-69
2023/10/16 07:58:54;;;;;;;1.70;1.17;;;15.50;84.10;;;;;;10949207;32;20019;-69
2023/10/16 08:05:03;;;;;;;1.15;0.90;;;15.50;83.60;;;;;;10948044;32;20050;-69
2023/10/16 08:11:18;;;;;;;2.15;1.30;;;15.60;83.80;;;;;;10948647;32;20381;-70
2023/10/16 08:17:26;;;;;;;1.67;1.00;;;15.60;83.60;;;;;;10947677;32;20031;-68
2023/10/16 08:23:34;;;;;;;1.07;0.80;;;15.70;83.80;;;;;;10935055;32;20018;-70
2023/10/16 08:29:50;;;;;;;2.35;1.60;;;15.80;83.60;;;;;;10947173;32;20015;-72
2023/10/16 08:35:52;;;;;;;1.05;0.95;;;15.80;83.70;;;;;;10933204;32;20065;-70
2023/10/16 08:42:01;;;;;;;3.40;1.00;;;15.90;83.80;;;;;;10948118;32;20372;-71
2023/10/16 08:48:08;;;;;;;2.08;1.23;;;16.00;83.30;;;;;;10945685;32;20023;-69
2023/10/16 09:00:38;;;;;;;1.15;1.00;;;16.00;81.90;;;;;;10830780;32;20056;-68
2023/10/16 09:06:40;;;;;;;1.12;0.80;;;16.00;81.70;;;;;;10828865;32;20042;-69
2023/10/16 09:12:52;;;;;;;3.12;1.25;;;16.10;82.10;;;;;;10830543;32;20046;-70
2023/10/16 09:18:57;;;;;;;1.52;1.20;;;16.20;82.10;;;;;;10830206;32;20059;-74
2023/10/16 09:24:59;;;;;;;2.65;0.93;;;16.20;81.70;;;;;;10830242;32;20054;-75
2023/10/16 09:31:06;;;;;;;7.32;1.23;;;16.40;81.70;;;;;;10829700;32;20046;-74
2023/10/16 09:37:16;;;;;;;0.90;0.85;;;16.50;81.60;;;;;;10914701;32;20049;-74
2023/10/16 09:43:24;;;;;;;1.25;1.15;;;16.60;81.90;;;;;;10930424;32;20420;-74
2023/10/16 09:49:28;;;;;;;0.80;0.73;;;16.60;81.00;;;;;;10940466;32;20050;-75
2023/10/16 09:55:38;;;;;;;1.08;0.98;;;16.60;80.90;;;;;;10944288;32;20089;-75
2023/10/16 10:01:48;;;;;;;1.45;0.88;;;16.60;81.10;;;;;;10943954;32;20038;-74
2023/10/16 10:07:58;;;;;;;3.03;1.45;;;16.70;80.30;;;;;;10930011;32;20034;-74
2023/10/16 10:20:41;;;;;;;0.68;0.60;;;16.90;77.60;;;;;;10754366;33;20426;-76
2023/10/16 10:26:50;;;;;;;0.73;0.73;;;17.00;78.10;;;;;;10754378;33;20426;-74
2023/10/16 10:32:55;;;;;;;5.30;1.37;;;17.20;78.90;;;;;;10753625;33;20147;-74
2023/10/16 10:45:34;;;;;;;2.37;1.05;;;17.40;77.70;;;;;;10753484;33;20438;-75
2023/10/16 10:51:44;;;;;;;1.45;0.98;;;17.60;78.60;;;;;;10808887;32;20026;-74
2023/10/16 10:57:55;;;;;;;2.35;1.10;;;17.90;77.40;;;;;;10995482;32;20026;-74
2023/10/16 11:03:58;;;;;;;1.80;1.02;;;18.00;76.10;;;;;;11014413;32;20049;-74
2023/10/16 11:10:00;;;;;;;1.87;1.08;;;17.90;76.80;;;;;;11002686;32;20022;-74
2023/10/16 11:16:07;;;;;;;1.95;1.35;;;18.20;76.60;;;;;;11016808;32;20300;-75
2023/10/16 11:22:10;;;;;;;2.80;1.17;;;18.10;76.40;;;;;;11016996;32;20022;-75
2023/10/16 11:28:20;;;;;;;1.70;0.93;;;18.00;77.00;;;;;;11018884;32;20317;-70
2023/10/16 11:34:24;;;;;;;1.70;1.15;;;18.10;77.50;;;;;;11016965;32;20049;-69
2023/10/16 11:40:39;;;;;;;2.30;1.23;;;18.00;77.40;;;;;;11016981;32;20022;-70
2023/10/16 11:46:46;;;;;;;1.40;1.12;;;18.10;76.90;;;;;;11017133;32;20309;-69
2023/10/16 11:52:50;;;;;;;3.40;1.35;;;18.00;77.20;;;;;;11017217;32;20045;-70
2023/10/16 11:59:09;;;;;;;1.20;1.10;;;18.00;76.90;;;;;;11017103;32;20333;-70
2023/10/16 12:05:12;;;;;;;3.05;0.95;;;18.20;77.50;;;;;;11017832;32;20018;-69
2023/10/16 12:11:14;;;;;;;0.77;0.77;;;18.30;78.10;;;;;;11004270;32;20396;-70
2023/10/16 12:17:19;;;;;;;3.70;0.70;;;18.60;77.20;;;;;;11016231;32;20022;-69
2023/10/16 12:23:21;;;;;;;0.80;0.80;;;18.60;76.40;;;;;;11009035;32;20019;-70
2023/10/16 12:29:23;;;;;;;0.55;0.55;;;18.70;76.10;;;;;;11023106;32;20037;-69
2023/10/16 12:35:44;;;;;;;1.25;0.70;;;18.50;76.60;;;;;;11022592;32;20062;-69
2023/10/16 12:41:46;;;;;;;1.08;0.80;;;18.40;76.20;;;;;;11022582;32;20133;-69
2023/10/16 12:47:53;;;;;;;1.30;0.65;;;18.50;76.10;;;;;;11022515;32;20049;-69
2023/10/16 12:53:55;;;;;;;1.67;0.82;;;18.30;77.20;;;;;;11008329;32;20061;-69
2023/10/16 12:59:57;;;;;;;0.68;0.45;;;18.30;76.40;;;;;;11022014;32;20010;-69
2023/10/16 13:06:00;;;;;;;1.48;0.90;;;18.20;76.40;;;;;;11017622;32;20021;-69
2023/10/16 13:12:08;;;;;;;1.73;1.05;;;18.30;76.60;;;;;;11021623;32;20026;-69
2023/10/16 13:18:11;;;;;;;1.00;0.80;;;18.30;77.10;;;;;;11021911;32;20392;-70
2023/10/16 13:24:16;;;;;;;1.10;0.75;;;18.30;77.40;;;;;;10994622;32;20037;-69
2023/10/16 13:30:22;;;;;;;1.27;0.73;;;18.30;77.00;;;;;;11020406;32;20014;-69
2023/10/16 13:36:23;;;;;;;0.45;0.45;;;18.30;76.70;;;;;;11021728;32;20430;-69
2023/10/16 13:42:25;;;;;;;0.40;0.40;;;18.50;76.20;;;;;;11020357;32;20072;-69
2023/10/16 13:48:28;;;;;;;0.40;0.40;;;18.50;76.20;;;;;;11020509;32;20017;-70
2023/10/16 13:54:31;;;;;;;0.88;0.57;;;18.50;76.80;;;;;;11015754;32;20048;-69
2023/10/16 14:00:37;;;;;;;0.85;0.50;;;18.50;76.60;;;;;;11019744;32;20010;-69
2023/10/16 14:06:40;;;;;;;2.28;1.05;;;18.50;76.90;;;;;;11002562;32;20031;-69
2023/10/16 14:12:42;;;;;;;0.62;0.62;;;18.40;77.70;;;;;;11005451;32;20057;-69
2023/10/16 14:18:45;;;;;;;0.55;0.40;;;18.40;77.90;;;;;;11018926;32;20049;-69
2023/10/16 14:24:47;;;;;;;0.85;0.65;;;18.40;78.10;;;;;;11020278;32;20022;-69
2023/10/16 14:30:49;;;;;;;1.42;0.60;;;18.30;78.20;;;;;;11018730;32;20015;-69
2023/10/16 14:36:52;;;;;;;1.02;0.88;;;18.30;78.10;;;;;;11018739;32;20022;-70
2023/10/16 14:42:54;;;;;;;1.02;0.70;;;18.30;78.30;;;;;;11018806;32;20022;-69
2023/10/16 14:48:57;;;;;;;0.68;0.65;;;18.40;78.60;;;;;;10978758;27;20058;-69
2023/10/16 14:55:02;;;;;;;0.85;0.50;;;18.40;78.60;;;;;;10942817;32;20325;-69
2023/10/16 15:01:17;;;;;;;0.98;0.60;;;18.50;78.50;;;;;;10941709;32;20321;-69
2023/10/16 15:07:19;;;;;;;1.05;0.75;;;18.50;78.40;;;;;;10941040;32;20019;-69
2023/10/16 15:13:21;;;;;;;1.00;0.70;;;18.50;78.40;;;;;;10941402;32;20015;-69
2023/10/16 15:19:26;;;;;;;0.45;0.45;;;18.40;78.70;;;;;;10926978;32;20349;-69
2023/10/16 15:25:32;;;;;;;1.20;0.40;;;18.30;79.00;;;;;;10942244;32;20019;-69
2023/10/16 15:31:35;;;;;;;1.85;0.43;;;18.30;79.00;;;;;;10941511;32;20041;-69
2023/10/16 15:37:38;;;;;;;7.90;1.15;;;18.20;79.10;;;;;;10941823;32;20417;-69
2023/10/16 15:43:42;;;;;;;1.27;0.70;;;18.20;79.20;;;;;;10940938;32;20034;-69
2023/10/16 15:49:47;;;;;;;0.62;0.52;;;18.30;79.20;;;;;;10939980;32;20041;-69
2023/10/16 15:55:49;;;;;;;0.80;0.80;;;18.10;79.50;;;;;;10944003;32;20022;-69
2023/10/16 16:01:53;;;;;;;1.12;0.90;;;18.00;79.60;;;;;;10935978;32;20041;-69
2023/10/16 16:07:56;;;;;;;1.08;0.98;;;17.90;79.80;;;;;;10947854;32;20059;-68
2023/10/16 16:13:58;;;;;;;1.08;0.77;;;17.70;80.00;;;;;;10947807;32;20019;-69
2023/10/16 16:20:00;;;;;;;1.30;0.75;;;17.60;80.50;;;;;;10947188;32;20031;-69
2023/10/16 16:26:03;;;;;;;1.37;0.90;;;17.50;80.50;;;;;;10933126;32;20057;-69
2023/10/16 16:32:06;;;;;;;1.90;1.12;;;17.50;80.50;;;;;;10947048;32;20077;-69
2023/10/16 16:38:09;;;;;;;1.67;1.10;;;17.30;80.70;;;;;;10947512;32;20019;-69
2023/10/16 16:44:11;;;;;;;1.42;0.80;;;17.30;80.60;;;;;;10947394;32;20398;-69
2023/10/16 16:50:14;;;;;;;1.27;1.02;;;17.20;80.60;;;;;;10932714;32;20042;-69
2023/10/16 16:56:16;;;;;;;6.82;1.35;;;17.10;80.70;;;;;;10947108;32;20452;-69
2023/10/16 17:02:18;;;;;;;7.18;1.62;;;17.00;81.00;;;;;;10946719;32;20419;-76
2023/10/16 17:08:23;;;;;;;1.33;0.93;;;17.00;81.00;;;;;;10944985;32;20023;-75
2023/10/16 17:14:28;;;;;;;3.53;1.12;;;16.90;81.10;;;;;;10945971;32;20011;-75
2023/10/16 17:20:31;;;;;;;1.98;1.52;;;16.80;81.00;;;;;;10946564;32;20016;-75
2023/10/16 17:26:33;;;;;;;3.17;1.50;;;16.80;80.90;;;;;;10945244;32;20011;-76
2023/10/16 17:32:35;;;;;;;1.52;1.42;;;16.70;80.80;;;;;;10940859;32;20426;-75
2023/10/16 17:38:37;;;;;;;2.17;1.37;;;16.70;80.50;;;;;;10945352;32;20381;-75
2023/10/16 17:44:42;;;;;;;3.60;1.73;;;16.60;80.70;;;;;;10944598;32;20045;-74
2023/10/16 17:50:44;;;;;;;3.55;1.95;;;16.50;80.90;;;;;;10944142;32;20011;-75
2023/10/16 17:56:46;;;;;;;5.07;1.98;;;16.30;80.90;;;;;;10943812;32;20084;-75
2023/10/16 18:02:49;;;;;;;1.25;1.12;;;16.30;80.90;;;;;;10944298;32;20015;-75
2023/10/16 18:08:51;;;;;;;7.20;1.98;;;16.20;81.20;;;;;;10944644;32;20019;-75
2023/10/16 18:14:53;;;;;;;3.42;1.70;;;16.20;81.40;;;;;;10943228;32;20309;-75
2023/10/16 18:20:56;;;;;;;5.03;2.50;;;16.00;81.50;;;;;;10938866;32;20341;-74
2023/10/16 18:26:59;;;;;;;5.85;1.70;;;16.00;82.00;;;;;;10938260;32;20019;-75
2023/10/16 18:33:03;;;;;;;2.15;1.58;;;16.10;81.40;;;;;;10938389;32;20040;-75
2023/10/16 18:39:17;;;;;;;4.45;2.22;;;16.10;81.10;;;;;;10938231;32;20052;-75
2023/10/16 18:45:20;;;;;;;8.95;2.47;;;16.10;80.70;;;;;;10938355;32;20030;-75
2023/10/16 18:51:25;;;;;;;3.78;2.17;;;16.00;81.20;;;;;;10924032;32;20054;-75
2023/10/16 18:57:28;;;;;;;3.78;2.35;;;16.00;81.00;;;;;;10936952;32;20027;-75
2023/10/16 19:03:33;;;;;;;4.65;2.65;;;15.80;80.80;;;;;;10937528;32;20014;-75
2023/10/16 19:09:37;;;;;;;3.80;2.50;;;15.80;80.80;;;;;;10937438;32;20083;-75
2023/10/16 19:15:39;;;;;;;8.63;3.22;;;15.70;80.60;;;;;;10893196;32;20027;-75
2023/10/16 19:21:42;;;;;;;5.60;3.65;;;15.70;80.50;;;;;;10904487;32;20046;-75
2023/10/16 19:27:44;;;;;;;14.25;6.12;;;15.70;80.90;;;;;;10904551;32;20027;-75
2023/10/16 19:33:47;;;;;;;12.77;7.28;;;15.60;81.60;;;;;;10910601;32;20046;-75
2023/10/16 19:39:49;;;;;;;9.90;5.47;;;15.50;81.70;;;;;;10936611;32;20015;-68
2023/10/16 19:45:54;;;;;;;13.32;9.15;;;15.40;81.90;;;;;;10949571;32;20019;-68
2023/10/16 19:51:57;;;;;;;15.02;8.50;;;15.50;82.20;;;;;;10949398;32;20042;-68
2023/10/16 19:58:00;;;;;;;12.13;6.82;;;15.50;81.80;;;;;;10948081;32;20030;-69
2023/10/16 20:04:02;;;;;;;11.70;6.82;;;15.50;81.60;;;;;;10921055;32;20057;-68
2023/10/16 20:10:06;;;;;;;14.87;6.72;;;15.50;81.70;;;;;;10895908;32;20028;-68
2023/10/16 20:16:11;;;;;;;13.55;7.47;;;15.40;81.90;;;;;;10909683;32;20023;-68
2023/10/16 20:22:15;;;;;;;12.07;7.05;;;15.30;81.50;;;;;;10910035;32;20049;-68
2023/10/16 20:28:18;;;;;;;8.93;6.65;;;15.30;81.50;;;;;;10941093;32;20046;-68
2023/10/16 20:34:21;;;;;;;12.15;6.78;;;15.30;81.50;;;;;;10948177;32;20019;-68
2023/10/16 20:40:23;;;;;;;8.18;5.18;;;15.20;81.90;;;;;;10944391;32;20015;-68
2023/10/16 20:46:26;;;;;;;9.05;6.18;;;15.20;81.70;;;;;;10944250;32;20531;-68
2023/10/16 20:52:28;;;;;;;8.73;6.00;;;15.20;81.50;;;;;;10931824;32;20057;-68
2023/10/16 20:58:31;;;;;;;13.20;5.93;;;15.20;81.30;;;;;;10942815;32;20027;-68
2023/10/16 21:04:33;;;;;;;8.50;5.30;;;15.10;81.40;;;;;;10945763;32;20037;-68
2023/10/16 21:10:35;;;;;;;7.37;4.43;;;15.00;81.40;;;;;;10945726;32;20042;-68
2023/10/16 21:16:38;;;;;;;4.65;3.22;;;15.00;81.30;;;;;;10943463;32;20049;-68
2023/10/16 21:22:44;;;;;;;4.87;3.53;;;15.00;81.30;;;;;;10940320;32;20428;-69
2023/10/16 21:28:46;;;;;;;5.60;3.45;;;15.00;81.50;;;;;;10930773;32;20081;-68
2023/10/16 21:34:49;;;;;;;5.15;3.10;;;15.00;81.90;;;;;;10943710;32;20023;-75
2023/10/16 21:40:59;;;;;;;6.75;3.92;;;15.00;82.20;;;;;;10944526;32;20015;-75
2023/10/16 21:47:03;;;;;;;4.10;2.72;;;14.90;82.40;;;;;;10930246;32;20023;-75
2023/10/16 21:53:05;;;;;;;2.50;1.98;;;14.90;82.40;;;;;;10943614;32;20014;-75
2023/10/16 21:59:09;;;;;;;4.68;3.10;;;14.90;82.40;;;;;;10944466;32;20014;-75
2023/10/16 22:05:11;;;;;;;3.42;2.10;;;15.00;82.10;;;;;;10943451;32;20381;-74
2023/10/16 22:11:14;;;;;;;2.95;1.98;;;15.00;82.20;;;;;;10943359;32;20020;-74
2023/10/16 22:17:16;;;;;;;6.65;2.62;;;14.80;82.70;;;;;;10944825;32;20042;-75
2023/10/16 22:23:18;;;;;;;2.80;2.17;;;14.80;83.10;;;;;;10941481;32;20348;-68
2023/10/16 22:29:20;;;;;;;5.85;2.65;;;14.80;83.30;;;;;;10942569;32;20317;-68
2023/10/16 22:35:24;;;;;;;2.85;1.83;;;14.70;83.40;;;;;;10943085;32;20053;-68
2023/10/16 22:41:30;;;;;;;3.50;2.10;;;14.70;83.60;;;;;;10942788;32;20360;-68
2023/10/16 22:47:34;;;;;;;2.95;1.85;;;14.70;83.90;;;;;;10946861;27;20435;-69
2023/10/16 22:53:36;;;;;;;3.10;2.25;;;14.70;83.90;;;;;;10942423;32;20381;-68
2023/10/16 22:59:41;;;;;;;2.25;2.00;;;14.70;84.00;;;;;;10938950;32;20023;-68
2023/10/16 23:05:43;;;;;;;3.10;1.67;;;14.70;84.30;;;;;;10941921;32;20046;-68
2023/10/16 23:11:59;;;;;;;2.17;1.92;;;14.60;84.40;;;;;;10941473;32;20023;-68
2023/10/16 23:18:03;;;;;;;1.45;1.25;;;14.60;84.50;;;;;;10941706;32;20447;-69
2023/10/16 23:24:10;;;;;;;2.47;1.95;;;14.50;84.70;;;;;;10938832;32;20023;-68
2023/10/16 23:30:21;;;;;;;4.05;2.15;;;14.50;84.80;;;;;;10940789;32;20063;-68
2023/10/16 23:36:26;;;;;;;3.45;1.83;;;14.50;84.80;;;;;;10941166;32;20337;-68
2023/10/16 23:42:35;;;;;;;3.00;2.17;;;14.50;84.60;;;;;;10941993;32;20027;-69
2023/10/16 23:48:44;;;;;;;3.50;1.73;;;14.40;84.60;;;;;;10940836;32;20078;-69
2023/10/16 23:54:55;;;;;;;5.87;2.95;;;14.40;84.50;;;;;;10940374;32;20031;-68
